Time;durP1;ratioP1;P1;durP2;ratioP2;P2;SDS_P1;SDS_P2;PMS_P1;PMS_P2;Temp;Humidity;BMP_temperature;BMP_pressure;BME280_temperature;BME280_humidity;BME280_pressure;Samples;Min_cycle;Max_cycle;Signal;HPM_P1;HPM_P2
2023/11/01 00:01:58;;;;;;;2.70;2.27;;;;;;;10.46;100.00;99799.00;5010478;28;20222;-80
2023/11/01 00:04:24;;;;;;;4.30;2.50;;;;;;;10.47;100.00;99802.50;5011842;28;20204;-81
2023/11/01 00:06:50;;;;;;;2.50;2.27;;;;;;;10.43;100.00;99799.22;5015081;28;20233;-80
2023/11/01 00:09:17;;;;;;;2.33;2.13;;;;;;;10.39;100.00;99795.13;5056496;28;20216;-82
2023/11/01 00:11:45;;;;;;;2.60;2.40;;;;;;;10.38;100.00;99799.59;5014611;28;20212;-80
2023/11/01 00:14:11;;;;;;;2.80;2.40;;;;;;;10.36;100.00;99790.88;5005545;28;20216;-80
2023/11/01 00:16:38;;;;;;;3.43;2.30;;;;;;;10.39;100.00;99789.78;5012788;28;20233;-82
2023/11/01 00:19:05;;;;;;;2.50;2.30;;;;;;;10.33;100.00;99788.44;5004745;28;20216;-81
2023/11/01 00:21:32;;;;;;;3.00;2.60;;;;;;;10.33;100.00;99791.09;5014858;28;20630;-81
2023/11/01 00:23:58;;;;;;;2.83;2.20;;;;;;;10.35;100.00;99785.66;5011955;28;20208;-80
2023/11/01 00:26:25;;;;;;;2.93;2.40;;;;;;;10.33;100.00;99796.44;5009012;28;20250;-83
2023/11/01 00:28:52;;;;;;;3.63;2.70;;;;;;;10.29;100.00;99788.78;5008814;28;20592;-81
2023/11/01 00:31:19;;;;;;;3.43;3.13;;;;;;;10.28;100.00;99790.59;5006227;28;20211;-81
2023/11/01 00:33:45;;;;;;;4.40;3.80;;;;;;;10.30;100.00;99796.66;5026406;28;20212;-81
2023/11/01 00:36:13;;;;;;;4.60;3.33;;;;;;;10.31;100.00;99794.84;5011851;28;20212;-80
2023/11/01 00:38:40;;;;;;;4.13;3.73;;;;;;;10.32;100.00;99804.53;5006601;28;20257;-82
2023/11/01 00:41:06;;;;;;;6.80;3.93;;;;;;;10.32;100.00;99802.72;5015419;28;20209;-81
2023/11/01 00:43:33;;;;;;;6.80;4.70;;;;;;;10.33;100.00;99799.09;5013164;28;20211;-81
2023/11/01 00:46:01;;;;;;;5.87;4.63;;;;;;;10.33;100.00;99800.91;5007072;28;20913;-81
2023/11/01 00:48:27;;;;;;;4.53;4.13;;;;;;;10.36;100.00;99798.84;5013445;28;20228;-81
2023/11/01 00:50:54;;;;;;;5.97;4.90;;;;;;;10.34;100.00;99800.78;5015935;28;20211;-81
2023/11/01 00:53:21;;;;;;;6.70;4.47;;;;;;;10.34;100.00;99794.63;5008171;28;20214;-81
2023/11/01 00:55:48;;;;;;;5.20;4.47;;;;;;;10.33;100.00;99804.41;5012067;28;20210;-81
2023/11/01 00:58:14;;;;;;;5.53;4.43;;;;;;;10.31;100.00;99803.69;5012965;28;20227;-80
2023/11/01 01:00:40;;;;;;;5.73;4.57;;;;;;;10.29;100.00;99810.91;5024973;28;20212;-81
2023/11/01 01:03:10;;;;;;;6.30;4.43;;;;;;;10.28;100.00;99801.25;5005166;28;20207;-81
2023/11/01 01:05:36;;;;;;;8.40;4.60;;;;;;;10.28;100.00;99811.88;5004809;28;20231;-80
2023/11/01 01:08:03;;;;;;;5.17;4.40;;;;;;;10.29;100.00;99816.25;5006309;28;20695;-81
2023/11/01 01:10:29;;;;;;;5.07;4.10;;;;;;;10.31;100.00;99810.81;5008036;28;20566;-81
2023/11/01 01:12:56;;;;;;;5.63;4.07;;;;;;;10.30;100.00;99812.63;5010346;28;20219;-82
2023/11/01 01:15:22;;;;;;;6.07;4.80;;;;;;;10.33;100.00;99809.72;5005990;28;20215;-81
2023/11/01 01:17:49;;;;;;;5.50;3.53;;;;;;;10.35;100.00;99818.44;5008607;28;20223;-81
2023/11/01 01:20:17;;;;;;;5.30;4.10;;;;;;;10.33;100.00;99820.38;5020042;28;20214;-80
2023/11/01 01:22:44;;;;;;;3.97;3.20;;;;;;;10.34;100.00;99814.09;5008416;28;20556;-81
2023/11/01 01:25:11;;;;;;;4.63;3.63;;;;;;;10.33;100.00;99814.22;4996555;28;20203;-82
2023/11/01 01:27:37;;;;;;;3.37;2.97;;;;;;;10.40;100.00;99820.75;5004385;28;20238;-81
2023/11/01 01:30:04;;;;;;;2.83;2.53;;;;;;;10.42;100.00;99819.66;5004790;28;20215;-81
2023/11/01 01:32:32;;;;;;;4.60;3.00;;;;;;;10.43;100.00;99816.03;5010069;28;20210;-80
2023/11/01 01:34:58;;;;;;;3.77;2.47;;;;;;;10.47;100.00;99818.47;5004642;28;20206;-81
2023/11/01 01:37:26;;;;;;;4.30;2.43;;;;;;;10.47;100.00;99811.34;5013402;28;20292;-80
2023/11/01 01:39:53;;;;;;;4.40;2.90;;;;;;;10.48;100.00;99793.56;5005090;28;20199;-80
2023/11/01 01:42:19;;;;;;;4.13;2.93;;;;;;;10.41;100.00;99795.81;5004282;28;20214;-80
2023/11/01 01:44:46;;;;;;;2.53;2.13;;;;;;;10.37;100.00;99787.25;5006208;28;20208;-80
2023/11/01 01:47:13;;;;;;;2.77;2.00;;;;;;;10.34;100.00;99786.63;5004691;28;20230;-80
2023/11/01 01:49:39;;;;;;;3.13;1.87;;;;;;;10.33;100.00;99787.59;5003804;28;20219;-81
2023/11/01 01:52:06;;;;;;;3.00;1.87;;;;;;;10.30;100.00;99783.34;5006491;28;20867;-81
2023/11/01 01:54:34;;;;;;;3.07;1.80;;;;;;;10.29;100.00;99781.66;5005505;28;20548;-80
2023/11/01 01:57:01;;;;;;;3.27;1.30;;;;;;;10.28;100.00;99781.75;5007555;28;20223;-80
2023/11/01 01:59:27;;;;;;;2.03;1.47;;;;;;;10.29;100.00;99773.66;5010523;28;20200;-80
2023/11/01 02:01:57;;;;;;;2.30;1.47;;;;;;;10.28;100.00;99769.31;5016130;28;20213;-80
2023/11/01 02:04:23;;;;;;;2.20;1.70;;;;;;;10.26;100.00;99765.91;5006921;28;20805;-79
2023/11/01 02:06:50;;;;;;;1.60;1.50;;;;;;;10.24;100.00;99773.16;5010097;28;20222;-80
2023/11/01 02:09:16;;;;;;;1.63;1.50;;;;;;;10.23;100.00;99766.13;5006815;28;20231;-81
2023/11/01 02:11:44;;;;;;;3.23;1.60;;;;;;;10.22;100.00;99768.91;5020985;28;20211;-80
2023/11/01 02:14:12;;;;;;;2.00;1.30;;;;;;;10.21;100.00;99769.91;5007164;28;20683;-80
2023/11/01 02:16:39;;;;;;;1.70;1.57;;;;;;;10.21;100.00;99764.59;5001729;28;20831;-81
2023/11/01 02:19:07;;;;;;;2.03;1.40;;;;;;;10.22;100.00;99768.91;4997973;28;20216;-80
2023/11/01 02:21:33;;;;;;;2.77;1.60;;;;;;;10.20;100.00;99766.41;5017071;28;20203;-80
2023/11/01 02:24:01;;;;;;;3.20;1.93;;;;;;;10.27;100.00;99764.94;5005801;28;20196;-80
2023/11/01 02:26:30;;;;;;;4.50;2.20;;;;;;;10.24;100.00;99765.16;5003800;28;20224;-82
2023/11/01 02:28:56;;;;;;;3.33;1.83;;;;;;;10.24;100.00;99756.34;5009167;28;20228;-80
2023/11/01 02:31:23;;;;;;;2.30;1.90;;;;;;;10.23;100.00;99766.13;5011183;28;20196;-81
2023/11/01 02:33:49;;;;;;;4.47;2.10;;;;;;;10.26;100.00;99757.06;5006676;28;20195;-82
2023/11/01 02:36:16;;;;;;;6.20;2.93;;;;;;;10.28;100.00;99763.13;5004227;28;20332;-82
2023/11/01 02:38:42;;;;;;;3.20;1.77;;;;;;;10.28;100.00;99761.31;5009764;28;20207;-81
2023/11/01 02:41:10;;;;;;;3.63;1.70;;;;;;;10.28;100.00;99756.00;5003793;28;20215;-82
2023/11/01 02:43:37;;;;;;;2.60;1.67;;;;;;;10.30;100.00;99754.06;4999383;28;20660;-80
2023/11/01 02:46:04;;;;;;;2.27;1.70;;;;;;;10.32;100.00;99744.16;5006179;28;20727;-80
2023/11/01 02:48:30;;;;;;;1.37;1.27;;;;;;;10.34;100.00;99741.38;5009384;28;20654;-82
2023/11/01 02:50:56;;;;;;;1.93;1.50;;;;;;;10.34;100.00;99741.38;5003924;28;20204;-80
2023/11/01 02:53:23;;;;;;;1.73;1.33;;;;;;;10.31;100.00;99745.13;5002509;28;20221;-80
2023/11/01 02:55:50;;;;;;;2.33;1.30;;;;;;;10.32;100.00;99744.16;5009838;28;20202;-80
2023/11/01 02:58:18;;;;;;;1.50;1.40;;;;;;;10.30;100.00;99735.44;5002458;28;20254;-82
2023/11/01 03:00:44;;;;;;;2.37;1.83;;;;;;;10.26;100.00;99733.13;4999762;28;20730;-83
2023/11/01 03:03:11;;;;;;;2.37;1.50;;;;;;;10.23;100.00;99744.00;5002790;28;20556;-82
2023/11/01 03:05:37;;;;;;;1.90;1.30;;;;;;;10.21;100.00;99738.78;5004711;28;20664;-83
2023/11/01 03:08:04;;;;;;;3.50;1.70;;;;;;;10.18;100.00;99730.19;5005461;28;20231;-80
2023/11/01 03:10:30;;;;;;;2.90;1.70;;;;;;;10.14;100.00;99734.88;5008004;28;20209;-81
2023/11/01 03:12:57;;;;;;;3.37;1.87;;;;;;;10.13;100.00;99727.88;5005032;28;20214;-81
2023/11/01 03:15:25;;;;;;;2.87;2.00;;;;;;;10.12;100.00;99736.81;4999685;28;20207;-80
2023/11/01 03:17:51;;;;;;;3.30;2.20;;;;;;;10.09;100.00;99726.41;4999370;28;20232;-81
2023/11/01 03:20:18;;;;;;;2.67;2.07;;;;;;;10.07;100.00;99728.31;4998917;28;20221;-80
2023/11/01 03:22:44;;;;;;;2.17;1.97;;;;;;;10.06;100.00;99723.97;5004625;28;20208;-81
2023/11/01 03:25:10;;;;;;;2.67;2.33;;;;;;;10.05;100.00;99725.78;4999462;28;20203;-80
2023/11/01 03:27:37;;;;;;;2.40;2.10;;;;;;;10.04;100.00;99729.41;5005880;28;20218;-82
2023/11/01 03:30:04;;;;;;;4.33;2.17;;;;;;;10.04;100.00;99720.56;5004057;28;20242;-81
2023/11/01 03:32:32;;;;;;;3.40;2.40;;;;;;;10.02;100.00;99717.22;5004834;28;20214;-80
2023/11/01 03:34:58;;;;;;;2.73;1.93;;;;;;;10.00;100.00;99717.31;5001985;28;20212;-81
2023/11/01 03:37:25;;;;;;;2.10;1.70;;;;;;;10.00;100.00;99722.63;5002565;28;20588;-81
2023/11/01 03:39:52;;;;;;;2.20;2.00;;;;;;;9.99;100.00;99715.63;5034152;28;20214;-81
2023/11/01 03:42:20;;;;;;;2.70;2.00;;;;;;;9.99;100.00;99717.44;5007880;28;20218;-82
2023/11/01 03:44:47;;;;;;;2.53;1.73;;;;;;;9.98;100.00;99721.06;5004590;28;20208;-80
2023/11/01 03:47:14;;;;;;;2.43;2.23;;;;;;;9.95;100.00;99713.31;5005364;28;20240;-81
2023/11/01 03:49:41;;;;;;;2.63;2.13;;;;;;;9.94;100.00;99723.09;5009528;28;20249;-80
2023/11/01 03:52:08;;;;;;;3.23;2.60;;;;;;;9.93;100.00;99723.19;5002141;28;20221;-81
2023/11/01 03:54:34;;;;;;;2.73;1.90;;;;;;;9.95;100.00;99723.94;4997910;28;20207;-81
2023/11/01 03:57:03;;;;;;;3.83;2.27;;;;;;;9.94;100.00;99727.56;4996856;28;20249;-81
2023/11/01 03:59:30;;;;;;;3.83;2.10;;;;;;;9.95;100.00;99723.94;4999296;28;20223;-82
2023/11/01 04:01:56;;;;;;;3.33;2.53;;;;;;;9.93;100.00;99716.06;4999215;28;20249;-81
2023/11/01 04:04:23;;;;;;;2.70;2.00;;;;;;;9.96;100.00;99723.81;5000380;28;20214;-80
2023/11/01 04:06:51;;;;;;;4.47;2.33;;;;;;;9.97;100.00;99724.69;5001398;28;20227;-81
2023/11/01 04:09:18;;;;;;;2.73;2.23;;;;;;;10.00;100.00;99717.31;5005994;28;20299;-81
2023/11/01 04:11:44;;;;;;;3.13;2.10;;;;;;;10.01;100.00;99719.00;5002556;28;20203;-84
2023/11/01 04:14:11;;;;;;;2.97;2.20;;;;;;;10.03;100.00;99724.22;5000850;28;20209;-80
2023/11/01 04:16:37;;;;;;;3.80;1.90;;;;;;;10.02;100.00;99715.41;5004686;28;20230;-81
2023/11/01 04:19:04;;;;;;;2.37;2.13;;;;;;;10.05;100.00;99714.28;5002815;28;20209;-83
2023/11/01 04:21:30;;;;;;;2.80;2.07;;;;;;;10.03;100.00;99719.72;4998282;28;20207;-82
2023/11/01 04:23:58;;;;;;;2.77;1.63;;;;;;;10.04;100.00;99712.59;4997729;28;20204;-82
2023/11/01 04:26:24;;;;;;;4.00;2.20;;;;;;;10.09;100.00;99719.25;5011959;28;20228;-81
2023/11/01 04:28:51;;;;;;;3.90;2.40;;;;;;;10.09;100.00;99711.28;5006344;28;20227;-81
2023/11/01 04:31:18;;;;;;;3.00;2.57;;;;;;;10.11;100.00;99711.16;5001734;28;20211;-82
2023/11/01 04:33:45;;;;;;;2.37;2.03;;;;;;;10.18;100.00;99717.72;5006680;28;20204;-82
2023/11/01 04:36:12;;;;;;;2.10;1.60;;;;;;;10.20;100.00;99707.84;4996450;28;20205;-81
2023/11/01 04:38:39;;;;;;;2.50;1.90;;;;;;;10.22;100.00;99711.22;5001612;28;20212;-81
2023/11/01 04:41:09;;;;;;;2.73;1.70;;;;;;;10.23;100.00;99702.28;5010998;28;20211;-82
2023/11/01 04:43:36;;;;;;;3.37;1.80;;;;;;;10.25;100.00;99700.34;5002708;28;20219;-82
2023/11/01 04:46:03;;;;;;;2.80;2.30;;;;;;;10.26;100.00;99707.34;5009573;28;20209;-80
2023/11/01 04:48:29;;;;;;;3.17;2.40;;;;;;;10.26;100.00;99695.88;5002654;28;20205;-81
2023/11/01 04:50:56;;;;;;;2.97;2.33;;;;;;;10.24;100.00;99703.97;5008231;28;20210;-82
2023/11/01 04:53:22;;;;;;;3.00;2.70;;;;;;;10.23;100.00;99694.28;5004068;28;20196;-81
2023/11/01 04:55:50;;;;;;;3.27;2.77;;;;;;;10.22;100.00;99684.59;5010057;28;20211;-82
2023/11/01 04:58:18;;;;;;;4.43;2.80;;;;;;;10.22;100.00;99697.91;5008714;28;20230;-80
2023/11/01 05:00:45;;;;;;;2.53;2.30;;;;;;;10.21;100.00;99690.88;5008997;28;20207;-81
2023/11/01 05:03:11;;;;;;;3.53;2.53;;;;;;;10.23;100.00;99698.75;5005054;28;20278;-80
2023/11/01 05:05:38;;;;;;;4.20;2.47;;;;;;;10.24;100.00;99693.31;5005225;28;20567;-80
2023/11/01 05:08:05;;;;;;;3.13;2.40;;;;;;;10.23;100.00;99691.63;5009939;28;20648;-80
2023/11/01 05:10:31;;;;;;;3.63;2.50;;;;;;;10.23;100.00;99691.63;5008696;28;20230;-81
2023/11/01 05:12:58;;;;;;;6.93;3.13;;;;;;;10.23;100.00;99693.44;5003826;28;20209;-80
2023/11/01 05:15:26;;;;;;;5.77;2.90;;;;;;;10.23;100.00;99685.47;5006197;28;20263;-81
2023/11/01 05:17:53;;;;;;;3.63;3.03;;;;;;;10.25;100.00;99683.53;5004153;28;20395;-81
2023/11/01 05:20:19;;;;;;;4.97;3.00;;;;;;;10.24;100.00;99677.34;5002975;28;20262;-83
2023/11/01 05:22:46;;;;;;;3.40;2.53;;;;;;;10.23;100.00;99675.66;5002549;28;20226;-83
2023/11/01 05:25:15;;;;;;;3.93;2.80;;;;;;;10.23;100.00;99669.50;5010644;28;20218;-81
2023/11/01 05:27:42;;;;;;;5.23;2.63;;;;;;;10.25;100.00;99675.53;5007151;28;20239;-81
2023/11/01 05:30:14;;;;;;;3.90;2.40;;;;;;;10.26;100.00;99667.44;5007815;28;20319;-81
2023/11/01 05:32:42;;;;;;;5.67;3.00;;;;;;;10.25;100.00;99670.22;5008350;28;20219;-82
2023/11/01 05:35:12;;;;;;;4.90;2.80;;;;;;;10.24;100.00;99672.03;5011990;28;20288;-80
2023/11/01 05:37:38;;;;;;;4.50;2.80;;;;;;;10.23;100.00;99665.00;5004289;28;20229;-83
2023/11/01 05:40:12;;;;;;;3.83;2.87;;;;;;;10.24;100.00;99666.72;5011376;28;20211;-81
2023/11/01 05:42:40;;;;;;;4.23;3.00;;;;;;;10.25;100.00;99670.22;5001261;28;20624;-81
2023/11/01 05:45:07;;;;;;;4.00;3.00;;;;;;;10.25;100.00;99670.22;5012941;28;20211;-81
2023/11/01 05:47:34;;;;;;;6.67;3.70;;;;;;;10.24;100.00;99672.03;5000341;28;20230;-84
2023/11/01 05:50:06;;;;;;;3.83;3.00;;;;;;;10.26;100.00;99675.44;4998732;28;20232;-81
2023/11/01 05:52:32;;;;;;;3.50;2.60;;;;;;;10.25;100.00;99668.41;5003446;28;20697;-81
2023/11/01 05:54:59;;;;;;;6.03;2.83;;;;;;;10.27;100.00;99665.63;5008327;28;20202;-82
2023/11/01 05:57:25;;;;;;;3.97;2.83;;;;;;;10.25;100.00;99668.41;5010090;28;20237;-81
2023/11/01 05:59:53;;;;;;;3.37;3.00;;;;;;;10.26;100.00;99672.75;5005663;28;20290;-82
2023/11/01 06:02:19;;;;;;;5.07;3.30;;;;;;;10.25;100.00;99670.22;5000944;28;20825;-81
2023/11/01 06:04:46;;;;;;;4.60;2.63;;;;;;;10.26;100.00;99674.59;5002458;28;20281;-81
2023/11/01 06:07:15;;;;;;;3.40;3.10;;;;;;;10.26;100.00;99674.59;5003801;28;20665;-81
2023/11/01 06:09:41;;;;;;;5.60;2.77;;;;;;;10.28;100.00;99668.19;5010963;28;20224;-81
2023/11/01 06:12:08;;;;;;;3.70;2.27;;;;;;;10.27;100.00;99666.47;5009949;28;20592;-80
2023/11/01 06:14:34;;;;;;;2.93;2.63;;;;;;;10.26;100.00;99675.44;5007133;28;20208;-81
2023/11/01 06:17:01;;;;;;;5.30;3.00;;;;;;;10.25;100.00;99664.91;5003973;28;20224;-81
2023/11/01 06:19:28;;;;;;;3.40;2.33;;;;;;;10.27;100.00;99673.63;4998365;28;20209;-82
2023/11/01 06:21:54;;;;;;;3.73;3.00;;;;;;;10.27;100.00;99674.47;5005438;28;20212;-80
2023/11/01 06:24:22;;;;;;;3.03;2.40;;;;;;;10.29;100.00;99669.88;5002882;28;20563;-81
2023/11/01 06:26:49;;;;;;;4.97;2.70;;;;;;;10.29;100.00;99671.69;5010122;28;20237;-84
2023/11/01 06:29:16;;;;;;;5.97;3.30;;;;;;;10.29;100.00;99667.22;5012864;28;20228;-80
2023/11/01 06:31:43;;;;;;;6.73;3.37;;;;;;;10.27;100.00;99658.50;5009990;28;20209;-80
2023/11/01 06:34:09;;;;;;;4.87;2.87;;;;;;;10.28;100.00;99657.53;5008178;28;20228;-82
2023/11/01 06:36:35;;;;;;;7.53;3.00;;;;;;;10.29;100.00;99663.69;5001694;28;20236;-82
2023/11/01 06:39:02;;;;;;;4.30;3.10;;;;;;;10.32;100.00;99663.47;5002243;28;20210;-82
2023/11/01 06:41:30;;;;;;;4.93;2.60;;;;;;;10.32;100.00;99653.66;5017936;28;20204;-82
2023/11/01 06:43:56;;;;;;;5.80;2.90;;;;;;;10.33;100.00;99662.50;5010302;28;20589;-82
2023/11/01 06:46:23;;;;;;;3.47;2.40;;;;;;;10.33;100.00;99654.53;5010125;28;20224;-82
2023/11/01 06:48:49;;;;;;;5.03;2.40;;;;;;;10.35;100.00;99653.44;5008680;28;20220;-82
2023/11/01 06:51:16;;;;;;;3.97;2.90;;;;;;;10.39;100.00;99654.06;5001117;28;20257;-81
2023/11/01 06:53:43;;;;;;;5.13;2.40;;;;;;;10.41;100.00;99652.09;5006344;28;20204;-81
2023/11/01 06:56:09;;;;;;;3.97;2.30;;;;;;;10.44;100.00;99659.84;5006544;28;20211;-81
2023/11/01 06:58:37;;;;;;;3.57;2.50;;;;;;;10.43;100.00;99656.31;5000879;28;20206;-82
2023/11/01 07:01:06;;;;;;;5.50;2.60;;;;;;;10.47;100.00;99653.44;5006165;28;20576;-81
2023/11/01 07:03:32;;;;;;;5.60;2.53;;;;;;;10.51;100.00;99657.56;5008397;28;20208;-81
2023/11/01 07:05:59;;;;;;;3.37;2.57;;;;;;;10.51;100.00;99650.41;5011439;28;20215;-81
2023/11/01 07:08:25;;;;;;;5.80;2.93;;;;;;;10.53;100.00;99656.47;5004848;28;20280;-81
2023/11/01 07:10:52;;;;;;;4.83;2.50;;;;;;;10.54;100.00;99652.84;5003723;28;20234;-81
2023/11/01 07:13:18;;;;;;;3.73;2.57;;;;;;;10.56;100.00;99650.91;5003542;28;20214;-82
2023/11/01 07:15:47;;;;;;;5.60;3.13;;;;;;;10.57;100.00;99649.09;5003592;28;20204;-82
2023/11/01 07:18:13;;;;;;;4.73;2.80;;;;;;;10.58;100.00;99648.09;5005168;28;20224;-81
2023/11/01 07:20:40;;;;;;;4.53;2.37;;;;;;;10.59;100.00;99645.31;5007914;28;20209;-81
2023/11/01 07:23:06;;;;;;;6.50;2.90;;;;;;;10.59;100.00;99650.63;4997064;28;20229;-81
2023/11/01 07:25:33;;;;;;;6.30;2.80;;;;;;;10.63;100.00;99641.44;5012225;28;20200;-81
2023/11/01 07:27:59;;;;;;;5.63;2.70;;;;;;;10.66;100.00;99643.88;5004257;28;20711;-81
2023/11/01 07:30:26;;;;;;;4.37;2.77;;;;;;;10.68;100.00;99636.59;5007621;28;20226;-82
2023/11/01 07:32:54;;;;;;;5.40;2.70;;;;;;;10.68;100.00;99643.75;5010838;28;20304;-81
2023/11/01 07:35:20;;;;;;;6.57;2.90;;;;;;;10.69;100.00;99638.31;5004728;28;20665;-81
2023/11/01 07:37:47;;;;;;;4.00;2.47;;;;;;;10.71;100.00;99638.19;5005476;28;20255;-81
2023/11/01 07:40:13;;;;;;;6.67;2.73;;;;;;;10.69;100.00;99634.78;4994316;28;20204;-81
2023/11/01 07:42:40;;;;;;;5.87;2.97;;;;;;;10.72;100.00;99626.56;5003703;28;20305;-81
2023/11/01 07:45:08;;;;;;;4.53;3.47;;;;;;;10.69;100.00;99630.31;5005361;28;20210;-81
2023/11/01 07:47:35;;;;;;;4.97;3.17;;;;;;;10.70;100.00;99626.69;5005304;28;20236;-81
2023/11/01 07:50:04;;;;;;;4.57;2.80;;;;;;;10.72;100.00;99629.22;5011072;28;20303;-81
2023/11/01 07:52:30;;;;;;;5.43;2.60;;;;;;;10.77;100.00;99629.69;4999019;28;20265;-81
2023/11/01 07:54:57;;;;;;;3.93;2.20;;;;;;;10.81;100.00;99630.28;5005912;28;20208;-81
2023/11/01 07:57:23;;;;;;;4.87;1.90;;;;;;;10.81;100.00;99623.16;4994814;28;20239;-81
2023/11/01 07:59:52;;;;;;;2.60;1.70;;;;;;;10.85;100.00;99618.44;5003826;28;20568;-81
2023/11/01 08:02:19;;;;;;;3.27;2.07;;;;;;;10.87;100.00;99617.34;5000862;28;20281;-81
2023/11/01 08:04:46;;;;;;;5.37;1.80;;;;;;;10.91;100.00;99625.94;5002833;28;20292;-81
2023/11/01 08:07:14;;;;;;;3.10;1.80;;;;;;;10.92;100.00;99608.97;5004231;28;20241;-81
2023/11/01 08:09:40;;;;;;;2.03;1.73;;;;;;;10.94;100.00;99605.19;5007485;28;20233;-81
2023/11/01 08:12:08;;;;;;;3.53;2.00;;;;;;;10.97;100.00;99601.44;5005835;28;20207;-81
2023/11/01 08:14:34;;;;;;;4.23;1.80;;;;;;;11.00;100.00;99601.19;5008748;28;21116;-81
2023/11/01 08:17:01;;;;;;;3.47;1.80;;;;;;;11.00;100.00;99594.06;5007935;28;20592;-81
2023/11/01 08:19:27;;;;;;;3.63;2.20;;;;;;;11.01;100.00;99589.56;5000690;28;20300;-82
2023/11/01 08:21:54;;;;;;;2.97;1.73;;;;;;;11.01;100.00;99594.91;5001496;28;20207;-81
2023/11/01 08:24:21;;;;;;;4.77;1.90;;;;;;;11.01;100.00;99592.22;5002921;28;20222;-81
2023/11/01 08:26:48;;;;;;;3.43;1.60;;;;;;;11.04;100.00;99592.84;5012734;28;20859;-81
2023/11/01 08:29:14;;;;;;;4.37;2.13;;;;;;;11.05;100.00;99589.19;5010083;28;20678;-82
2023/11/01 08:31:41;;;;;;;2.87;2.07;;;;;;;11.08;100.00;99593.44;5007875;28;20717;-81
2023/11/01 08:34:08;;;;;;;5.60;2.50;;;;;;;11.12;100.00;99594.84;5004214;28;20679;-81
2023/11/01 08:36:34;;;;;;;3.60;2.20;;;;;;;11.18;100.00;99596.19;5003386;28;20248;-81
2023/11/01 08:39:01;;;;;;;3.93;1.87;;;;;;;11.18;100.00;99593.50;5006802;28;20212;-81
2023/11/01 08:41:28;;;;;;;2.20;1.60;;;;;;;11.22;100.00;99595.81;5001347;28;20386;-81
2023/11/01 08:43:55;;;;;;;4.33;2.17;;;;;;;11.23;100.00;99586.84;5006549;28;20209;-81
2023/11/01 08:46:22;;;;;;;2.07;1.40;;;;;;;11.24;100.00;99587.69;5004891;28;20212;-82
2023/11/01 08:48:49;;;;;;;3.50;1.63;;;;;;;11.26;100.00;99585.75;5007119;28;20199;-82
2023/11/01 08:51:15;;;;;;;2.23;1.60;;;;;;;11.28;100.00;99583.78;4997399;28;20837;-81
2023/11/01 08:53:42;;;;;;;2.07;1.50;;;;;;;11.34;100.00;99591.25;4999187;28;20200;-81
2023/11/01 08:56:09;;;;;;;1.73;1.33;;;;;;;11.36;100.00;99578.66;5008309;28;20221;-81
2023/11/01 08:58:38;;;;;;;1.10;1.03;;;;;;;11.39;100.00;99584.59;5001288;28;20211;-81
2023/11/01 09:01:05;;;;;;;3.83;1.10;;;;;;;11.44;100.00;99573.53;5006688;28;20741;-81
2023/11/01 09:03:31;;;;;;;2.13;1.10;;;;;;;11.44;100.00;99579.72;5008900;28;20205;-81
2023/11/01 09:05:58;;;;;;;1.30;1.10;;;;;;;11.50;100.00;99581.00;5043946;28;20208;-81
2023/11/01 09:08:24;;;;;;;4.13;1.20;;;;;;;11.56;100.00;99582.31;4999034;28;20233;-81
2023/11/01 09:10:51;;;;;;;1.80;1.10;;;;;;;11.58;100.00;99586.56;4998764;28;20278;-81
2023/11/01 09:13:17;;;;;;;1.93;1.07;;;;;;;11.60;100.00;99575.75;5005018;28;20213;-81
2023/11/01 09:15:46;;;;;;;1.47;0.90;;;;;;;11.69;100.00;99582.97;5018050;28;20206;-81
2023/11/01 09:18:12;;;;;;;3.43;0.90;;;;;;;11.73;100.00;99579.91;5016087;28;20284;-81
2023/11/01 09:20:39;;;;;;;1.27;0.80;;;;;;;11.80;100.00;99586.47;5009495;28;20199;-82
2023/11/01 09:23:05;;;;;;;2.20;1.13;;;;;;;11.85;100.00;99585.19;5018140;28;20485;-81
2023/11/01 09:25:32;;;;;;;2.63;1.47;;;;;;;11.87;100.00;99586.75;5007736;28;20207;-81
2023/11/01 09:27:59;;;;;;;1.57;0.90;;;;;;;11.89;100.00;99583.97;4999475;28;20227;-81
2023/11/01 09:30:26;;;;;;;1.30;0.97;;;;;;;11.97;100.00;99576.16;5006405;28;20222;-81
2023/11/01 09:32:54;;;;;;;0.70;0.70;;;;;;;12.02;100.00;99577.44;4998675;28;20203;-81
2023/11/01 09:35:21;;;;;;;1.67;0.80;;;;;;;12.06;100.00;99578.03;5008081;28;20211;-81
2023/11/01 09:37:48;;;;;;;3.13;0.90;;;;;;;12.14;100.00;99578.22;5001229;28;20725;-82
2023/11/01 09:40:15;;;;;;;0.83;0.50;;;;;;;12.18;100.00;99577.78;5007731;28;20207;-81
2023/11/01 09:42:42;;;;;;;0.97;0.60;;;;;;;12.22;100.00;99577.53;5006188;28;20830;-82
2023/11/01 09:45:10;;;;;;;1.80;0.83;;;;;;;12.27;100.00;99572.66;5007017;28;20214;-82
2023/11/01 09:47:37;;;;;;;1.37;0.80;;;;;;;12.27;100.00;99572.66;5006867;28;20256;-81
2023/11/01 09:50:07;;;;;;;1.40;1.00;;;;;;;12.29;100.00;99566.19;5007050;28;20218;-81
2023/11/01 09:52:34;;;;;;;1.63;0.80;;;;;;;12.33;100.00;99567.63;5004018;28;20222;-81
2023/11/01 09:55:02;;;;;;;1.27;0.80;;;;;;;12.34;100.00;99573.81;5003906;28;20199;-81
2023/11/01 09:57:30;;;;;;;1.20;0.73;;;;;;;12.35;100.00;99563.00;5003577;28;20814;-82
2023/11/01 09:59:57;;;;;;;1.37;0.50;;;;;;;12.39;100.00;99563.56;5005623;28;20214;-81
2023/11/01 10:02:24;;;;;;;1.67;0.80;;;;;;;12.43;100.00;99563.16;5010456;28;20675;-81
2023/11/01 10:04:51;;;;;;;0.87;0.60;;;;;;;12.46;100.00;99564.72;5016577;28;20209;-81
2023/11/01 10:07:19;;;;;;;0.90;0.47;;;;;;;12.46;100.00;99560.22;5002464;28;20244;-83
2023/11/01 10:09:46;;;;;;;1.37;0.60;;;;;;;12.47;100.00;99561.06;5012894;28;20203;-83
2023/11/01 10:12:14;;;;;;;1.87;0.40;;;;;;;12.52;100.00;99559.69;5009196;28;20233;-81
2023/11/01 10:14:41;;;;;;;0.37;0.37;;;;;;;12.59;100.00;99562.66;5001084;28;20215;-82
2023/11/01 10:17:07;;;;;;;1.40;0.50;;;;;;;12.62;100.00;99546.34;5008226;28;20316;-81
2023/11/01 10:19:34;;;;;;;1.57;0.80;;;;;;;12.71;100.00;99550.03;4999361;28;20678;-81
2023/11/01 10:22:01;;;;;;;2.33;0.70;;;;;;;12.73;100.00;99550.72;5008069;28;20203;-84
2023/11/01 10:24:29;;;;;;;4.07;1.10;;;;;;;12.79;100.00;99547.50;5014305;28;20216;-84
2023/11/01 10:26:57;;;;;;;3.07;1.00;;;;;;;12.84;100.00;99547.94;5008352;28;20223;-85
2023/11/01 10:29:26;;;;;;;2.47;1.17;;;;;;;12.84;100.00;99539.94;5003610;28;20605;-84
2023/11/01 10:31:54;;;;;;;1.27;0.63;;;;;;;12.89;100.00;99542.19;5004352;28;20222;-82
2023/11/01 10:34:26;;;;;;;4.83;0.80;;;;;;;12.94;100.00;99532.75;5007294;28;20697;-83
2023/11/01 10:36:54;;;;;;;1.03;0.70;;;;;;;13.00;100.00;99536.72;5010466;28;20220;-83
2023/11/01 10:39:21;;;;;;;2.47;0.70;;;;;;;13.07;100.00;99535.19;5007196;28;20629;-82
2023/11/01 10:41:50;;;;;;;1.13;0.50;;;;;;;13.08;100.00;99532.34;5007129;28;20233;-82
2023/11/01 10:44:18;;;;;;;1.43;1.03;;;;;;;13.06;100.00;99529.00;5000689;28;20210;-83
2023/11/01 10:46:44;;;;;;;2.60;0.70;;;;;;;13.09;100.00;99535.84;5006388;28;20239;-83
2023/11/01 10:49:11;;;;;;;1.10;0.70;;;;;;;13.11;100.00;99523.19;5007901;28;20218;-85
2023/11/01 10:51:39;;;;;;;0.77;0.60;;;;;;;13.14;100.00;99521.09;5006828;28;20702;-82
2023/11/01 10:54:06;;;;;;;2.10;0.80;;;;;;;13.17;100.00;99518.19;5004506;28;20214;-82
2023/11/01 10:56:33;;;;;;;2.07;0.50;;;;;;;13.19;100.00;99513.53;4996998;28;20234;-84
2023/11/01 10:59:06;;;;;;;1.37;1.07;;;;;;;13.23;100.00;99510.59;4999699;28;20208;-85
2023/11/01 11:01:39;;;;;;;2.00;0.60;;;;;;;13.29;100.00;99507.31;5000581;28;20199;-84
2023/11/01 11:04:20;;;;;;;3.07;0.50;;;;;;;13.33;100.00;99501.56;5003109;28;20199;-85
2023/11/01 11:06:55;;;;;;;2.57;1.10;;;;;;;13.37;100.00;99510.16;5002769;28;20235;-83
2023/11/01 11:09:23;;;;;;;3.27;1.10;;;;;;;13.38;100.00;99498.47;5004950;28;20209;-82
2023/11/01 11:12:19;;;;;;;3.80;1.90;;;;;;;13.43;100.00;99498.88;5004036;28;20651;-85
2023/11/01 11:14:49;;;;;;;4.40;0.93;;;;;;;13.46;100.00;99499.41;5003642;28;20775;-82
2023/11/01 11:17:17;;;;;;;3.47;2.07;;;;;;;13.48;100.00;99497.44;5011161;28;20238;-82
2023/11/01 11:20:12;;;;;;;3.27;1.93;;;;;;;13.55;100.00;99493.22;4994378;28;20688;-83
2023/11/01 11:23:13;;;;;;;2.77;1.40;;;;;;;13.56;100.00;99499.41;5011023;28;20252;-83
2023/11/01 11:25:50;;;;;;;2.53;1.07;;;;;;;13.57;100.00;99489.56;5010735;28;20659;-82
2023/11/01 11:28:47;;;;;;;3.77;1.00;;;;;;;13.57;100.00;99492.25;5010293;28;20226;-82